Detall de PIREP

Printer-friendly versionPDF version

[2017/05/29 09:13:00]
Flight IATA:CT2104
Pilot Number:041
Company ICAO:CAT
Aircraft Type:F28/A
PAX:28
Departing Airport: LEVC
Destination Airport: LEBB
Alternate Airport:LEBB
Online: VATSIM
Route:CENTA A33 CJN R10 PPN G23 CEGAM
Flight Level:FL250
No Slew and time accel
No pause
Crash detect
Detect pilot in Cockpit between each 30 and 45 minutes
09:13 Zero fuel Weight: 57506 Lbs, Fuel Weight: 15260 Lbs
09:13 VATSIM:LEVC 290900Z 07004KT 010V150 9999 FEW027 23/16 Q1016 NOSIG
09:13 VATSIM:LEBB 290900Z 00000KT 9000 FEW010 SCT015 BKN020 19/16 Q1015 NOSIG
09:13 VOICE CATALONIAN
09:13 Parking Brakes off
09:20 Take-off
09:20 Take off Weight: 72309 Lbs
09:20 Wind: 073º @ 009 Knots Heading: 294º
09:20 POS N39º 29´ 43´´ W000º 29´ 51´´
09:20 Gear Up: 187 Knots
09:20 Flaps:1 at 187 Knots
09:21 Flaps:0 at 133 Knots
09:33 TOC
09:33 Fuel Weight: 13071 Lb
09:35 Wind:311º@024 Knots Heading: 299º Ground Speed: 362 Knots Altitude 24993 ft
09:40 TOD
09:40 Fuel Weight: 12447 Lb
09:50 Wind:325º@019 Knots Heading: 010º Ground Speed: 370 Knots Altitude 24005 ft
10:05 Wind:279º@042 Knots Heading: 322º Ground Speed: 350 Knots Altitude 17775 ft
10:14 Flaps:1 at 227 Knots
10:14 Flaps:3 at 205 Knots
10:15 Flaps:4 at 196 Knots
10:16 Gear Down: 183 Knots
10:16 Flaps:5 at 171 Knots
10:19 TouchDown:Rate -346 ft/min Speed: 117 Knots
10:19 VATSIM:LEBB 291000Z VRB02KT 9000 SCT020 BKN025 20/17 Q1016 NOSIG
10:19 Land
10:19 Wind:003º@005 Knots
10:19 Heading: 296º
10:19 Flight Duration: 00:59
10:19 Landing Weight: 67588 Lbs
10:19 POS N43º 18´ 09´´ W002º 54´ 53´´
10:24 Parking brakes on
10:24 Block to Block Duration: 01:11
10:24 Final Fuel: 9891 Lbls
10:24 Spent Fuel: 5368 Lbls
10:24 Flight Length: 318 NM
10:24 TOD Land Length: 214 NM

Exportar CSV

Powered by Drupal - Modified by Danger4k